Time;durP1;ratioP1;P1;durP2;ratioP2;P2;SDS_P1;SDS_P2;PMS_P1;PMS_P2;Temp;Humidity;BMP_temperature;BMP_pressure;BME280_temperature;BME280_humidity;BME280_pressure;Samples;Min_cycle;Max_cycle;Signal;HPM_P1;HPM_P2
2023/02/27 00:01:25;;;;;;;0.75;0.75;;;;;;;2.06;81.11;102068.88;4957562;28;20049;-52
2023/02/27 00:03:51;;;;;;;0.55;0.55;;;;;;;1.94;81.59;102068.31;4948123;28;20075;-51
2023/02/27 00:06:17;;;;;;;0.52;0.52;;;;;;;2.03;81.85;102070.22;4956839;28;20063;-52
2023/02/27 00:08:43;;;;;;;0.70;0.70;;;;;;;2.06;81.55;102066.22;4956330;28;20050;-52
2023/02/27 00:11:08;;;;;;;0.52;0.52;;;;;;;2.07;81.65;102067.81;4957254;28;20667;-48
2023/02/27 00:13:35;;;;;;;0.98;0.93;;;;;;;2.10;81.16;102069.94;4942089;28;20073;-53
2023/02/27 00:16:00;;;;;;;0.80;0.80;;;;;;;2.03;81.38;102069.41;4956690;28;20122;-55
2023/02/27 00:18:26;;;;;;;1.10;1.10;;;;;;;1.97;81.55;102079.22;4958115;28;20114;-52
2023/02/27 00:20:51;;;;;;;0.32;0.32;;;;;;;2.02;80.99;102075.75;4942140;28;20034;-51
2023/02/27 00:23:17;;;;;;;0.52;0.52;;;;;;;2.05;80.94;102084.03;4949899;28;20046;-47
2023/02/27 00:25:42;;;;;;;0.85;0.85;;;;;;;1.88;81.91;102087.97;4945337;28;20094;-51
2023/02/27 00:28:08;;;;;;;0.50;0.50;;;;;;;1.68;82.28;102086.03;4952501;28;20038;-54
2023/02/27 00:30:33;;;;;;;0.50;0.45;;;;;;;1.61;83.12;102083.59;4967046;28;20038;-57
2023/02/27 00:32:59;;;;;;;0.57;0.57;;;;;;;1.74;82.65;102077.03;4947833;28;20034;-47
2023/02/27 00:35:25;;;;;;;2.05;0.95;;;;;;;1.77;82.65;102077.31;4945697;28;20126;-50
2023/02/27 00:37:50;;;;;;;1.00;1.00;;;;;;;1.77;82.75;102087.91;4945446;28;20039;-50
2023/02/27 00:40:16;;;;;;;1.00;0.80;;;;;;;1.80;82.51;102087.38;4957972;28;20046;-58
2023/02/27 00:42:42;;;;;;;0.50;0.50;;;;;;;1.72;82.57;102077.28;4937233;28;20047;-58
2023/02/27 00:45:08;;;;;;;0.35;0.35;;;;;;;1.56;83.14;102086.25;4928964;28;20038;-58
2023/02/27 00:47:34;;;;;;;0.40;0.40;;;;;;;1.49;84.16;102080.34;4933307;29;20027;-50
2023/02/27 00:50:00;;;;;;;0.55;0.55;;;;;;;1.55;83.34;102095.25;4951235;28;20031;-49
2023/02/27 00:52:25;;;;;;;0.55;0.55;;;;;;;1.53;84.00;102088.63;4949585;29;20409;-50
2023/02/27 00:54:51;;;;;;;0.47;0.47;;;;;;;1.61;84.04;102085.44;4949689;28;20038;-53
2023/02/27 00:57:17;;;;;;;0.75;0.75;;;;;;;1.31;84.07;102090.63;4948217;28;20032;-54
2023/02/27 00:59:42;;;;;;;0.63;0.63;;;;;;;1.17;84.92;102090.28;4950528;28;20162;-48
2023/02/27 01:02:08;;;;;;;0.40;0.40;;;;;;;1.07;84.80;102094.72;4946195;28;20019;-54
2023/02/27 01:04:33;;;;;;;0.25;0.25;;;;;;;1.11;85.10;102083.34;4943131;28;20042;-47
2023/02/27 01:06:59;;;;;;;0.57;0.57;;;;;;;1.12;85.70;102090.25;4962583;28;20023;-50
2023/02/27 01:09:25;;;;;;;0.40;0.40;;;;;;;1.13;85.96;102089.19;4946272;28;20027;-51
2023/02/27 01:11:51;;;;;;;0.52;0.52;;;;;;;1.21;85.52;102077.31;4939821;28;20090;-57
2023/02/27 01:14:17;;;;;;;0.50;0.50;;;;;;;1.23;85.39;102083.94;4964467;28;20042;-49
2023/02/27 01:16:44;;;;;;;0.55;0.55;;;;;;;1.30;85.05;102073.91;4949036;29;20065;-53
2023/02/27 01:19:09;;;;;;;0.65;0.65;;;;;;;1.25;85.45;102079.19;4931171;29;20035;-56
2023/02/27 01:21:35;;;;;;;0.40;0.40;;;;;;;1.30;85.31;102073.09;4959472;28;20120;-57
2023/02/27 01:24:01;;;;;;;0.20;0.20;;;;;;;1.38;85.23;102076.06;4960540;28;20046;-47
2023/02/27 01:26:26;;;;;;;0.50;0.50;;;;;;;1.42;84.34;102071.84;4926751;29;20608;-53
2023/02/27 01:28:52;;;;;;;0.30;0.30;;;;;;;1.49;84.10;102064.44;4931306;28;20122;-54
2023/02/27 01:31:38;;;;;;;1.20;1.05;;;;;;;1.57;84.24;102060.47;4946528;28;20049;-53
2023/02/27 01:34:03;;;;;;;2.35;0.80;;;;;;;1.54;84.03;102067.13;4891892;29;20044;-51
2023/02/27 01:36:29;;;;;;;0.50;0.50;;;;;;;1.54;83.95;102053.88;4875820;29;20040;-51
2023/02/27 01:38:55;;;;;;;0.40;0.40;;;;;;;1.54;83.70;102048.56;4864636;29;20051;-47
2023/02/27 01:41:20;;;;;;;0.93;0.85;;;;;;;1.56;82.94;102050.94;4890301;29;20143;-53
2023/02/27 01:44:01;;;;;;;0.40;0.40;;;;;;;1.53;82.80;102049.59;4901042;29;20078;-49
2023/02/27 01:46:27;;;;;;;0.98;0.98;;;;;;;1.42;83.83;102055.94;4891936;29;20044;-56
2023/02/27 01:48:59;;;;;;;0.40;0.40;;;;;;;1.34;83.30;102056.41;4874392;29;20450;-49
2023/02/27 01:51:30;;;;;;;0.40;0.40;;;;;;;1.38;83.58;102057.50;4902696;29;20143;-56
2023/02/27 01:53:56;;;;;;;;;;;;;;;1.45;84.00;102058.06;4888278;29;20076;-47
2023/02/27 01:56:24;;;;;;;0.20;0.20;;;;;;;1.53;83.64;102054.13;4894377;29;19955;-49
2023/02/27 01:58:55;;;;;;;0.43;0.43;;;;;;;1.54;83.58;102048.56;4887014;29;20035;-51
2023/02/27 02:01:23;;;;;;;0.43;0.43;;;;;;;1.57;82.62;102052.53;4895077;29;20124;-49
2023/02/27 02:03:56;;;;;;;0.30;0.30;;;;;;;1.60;82.76;102065.28;4881740;29;20738;-49
2023/02/27 02:06:21;;;;;;;0.40;0.40;;;;;;;1.58;82.81;102068.22;4903398;29;20525;-55
2023/02/27 02:08:52;;;;;;;0.95;0.95;;;;;;;1.57;82.52;102063.13;4885514;29;20123;-57
2023/02/27 02:11:19;;;;;;;0.98;0.98;;;;;;;1.57;82.84;102069.25;4921573;28;20096;-58
2023/02/27 02:13:45;;;;;;;0.20;0.20;;;;;;;1.53;82.69;102065.53;4945247;28;20042;-50
2023/02/27 02:16:32;;;;;;;0.30;0.30;;;;;;;1.42;83.43;102073.69;4962870;28;20086;-51
2023/02/27 02:19:37;;;;;;;0.57;0.57;;;;;;;1.42;83.26;102068.38;4951996;28;20046;-52
2023/02/27 02:22:31;;;;;;;0.47;0.47;;;;;;;1.47;83.43;102071.09;4903800;29;20406;-48
2023/02/27 02:25:15;;;;;;;3.92;0.63;;;;;;;1.41;83.59;102074.75;4955205;28;20081;-47
2023/02/27 02:28:04;;;;;;;0.30;0.30;;;;;;;1.36;83.79;102075.53;4951806;28;20118;-47
2023/02/27 02:30:58;;;;;;;0.40;0.40;;;;;;;1.22;84.09;102078.91;4965474;28;20028;-57
2023/02/27 02:33:43;;;;;;;0.20;0.20;;;;;;;1.21;84.94;102074.66;4936577;28;20027;-51
2023/02/27 02:36:46;;;;;;;0.55;0.55;;;;;;;1.28;84.56;102086.63;4948057;28;20113;-49
2023/02/27 02:39:40;;;;;;;0.68;0.68;;;;;;;1.17;84.76;102077.03;4930470;29;20441;-47
2023/02/27 02:42:24;;;;;;;0.45;0.45;;;;;;;1.18;84.86;102073.28;4940178;29;20035;-48
2023/02/27 02:45:08;;;;;;;0.40;0.40;;;;;;;1.19;85.59;102071.44;4948550;29;20043;-47
2023/02/27 02:48:14;;;;;;;0.40;0.40;;;;;;;1.19;85.80;102079.41;4952112;28;20030;-47
2023/02/27 02:50:55;;;;;;;1.27;0.73;;;;;;;1.25;85.96;102073.06;4955742;28;20047;-47
2023/02/27 02:53:28;;;;;;;0.55;0.50;;;;;;;1.33;85.83;102072.59;4935394;29;20036;-48
2023/02/27 02:56:16;;;;;;;0.57;0.57;;;;;;;1.41;85.45;102077.41;4961859;28;20031;-47
2023/02/27 02:58:53;;;;;;;0.32;0.32;;;;;;;1.43;84.63;102081.38;4931904;29;20031;-53
2023/02/27 03:01:25;;;;;;;0.38;0.38;;;;;;;1.31;85.17;102082.66;4959296;28;20442;-56
2023/02/27 03:04:02;;;;;;;0.40;0.40;;;;;;;1.25;85.35;102067.78;4937763;28;20066;-50
2023/02/27 03:06:32;;;;;;;0.45;0.45;;;;;;;1.20;85.46;102079.16;4965564;28;20039;-53
2023/02/27 03:09:04;;;;;;;0.50;0.50;;;;;;;1.14;85.25;102079.41;4945136;28;20417;-57
2023/02/27 03:11:35;;;;;;;0.52;0.47;;;;;;;1.19;85.75;102079.41;4932177;29;20038;-56
2023/02/27 03:14:36;;;;;;;0.40;0.40;;;;;;;1.09;85.66;102076.69;4962881;28;20456;-47
2023/02/27 03:17:43;;;;;;;0.40;0.40;;;;;;;0.95;86.06;102079.00;4934116;29;20437;-57
2023/02/27 03:20:15;;;;;;;0.80;0.80;;;;;;;0.99;85.76;102082.72;4933746;29;20129;-54
2023/02/27 03:22:46;;;;;;;0.30;0.30;;;;;;;1.06;86.06;102093.13;4949603;28;20294;-51
2023/02/27 03:25:13;;;;;;;0.40;0.40;;;;;;;1.19;86.35;102088.16;4950854;28;20481;-47
2023/02/27 03:27:52;;;;;;;0.20;0.20;;;;;;;1.12;85.79;102084.16;4945970;28;20038;-47
2023/02/27 03:30:24;;;;;;;1.27;0.52;;;;;;;1.09;85.76;102084.66;4937135;29;20027;-46
2023/02/27 03:33:11;;;;;;;0.57;0.57;;;;;;;1.12;85.74;102082.31;4953187;28;20098;-56
2023/02/27 03:36:08;;;;;;;0.38;0.38;;;;;;;1.11;85.31;102080.69;4933234;28;20037;-47
2023/02/27 03:38:43;;;;;;;0.40;0.40;;;;;;;1.10;85.59;102088.91;4948514;29;20443;-52
2023/02/27 03:41:25;;;;;;;0.63;0.63;;;;;;;1.18;85.44;102089.22;4932243;28;20120;-53
2023/02/27 03:44:21;;;;;;;0.60;0.60;;;;;;;1.27;85.36;102086.88;4962400;28;20035;-53
2023/02/27 03:46:47;;;;;;;0.65;0.65;;;;;;;1.29;85.40;102090.09;4949798;28;20058;-50
2023/02/27 03:49:13;;;;;;;1.75;1.10;;;;;;;1.31;85.35;102093.28;4931255;29;20085;-58
2023/02/27 03:51:38;;;;;;;0.22;0.22;;;;;;;1.23;84.58;102094.56;4945466;28;20028;-48
2023/02/27 03:54:15;;;;;;;0.35;0.35;;;;;;;1.19;84.53;102103.28;4932167;29;20103;-50
2023/02/27 03:56:48;;;;;;;0.57;0.45;;;;;;;1.16;84.88;102104.59;4949819;28;20082;-46
2023/02/27 03:59:14;;;;;;;2.10;0.60;;;;;;;1.25;85.01;102099.59;4932378;29;20028;-53
2023/02/27 04:01:45;;;;;;;;;;;;;;;1.20;84.62;102102.25;4965796;28;20027;-51
2023/02/27 04:04:14;;;;;;;0.20;0.20;;;;;;;1.19;84.69;102117.34;4936770;29;20001;-55
2023/02/27 04:07:21;;;;;;;0.30;0.30;;;;;;;1.14;85.40;102114.69;4913064;29;20024;-58
2023/02/27 04:09:59;;;;;;;1.13;0.60;;;;;;;1.19;85.63;102114.69;4949242;28;20082;-57
2023/02/27 04:12:27;;;;;;;0.30;0.30;;;;;;;1.21;85.06;102119.75;4955908;28;20042;-56
2023/02/27 04:15:04;;;;;;;0.73;0.70;;;;;;;1.23;84.76;102110.47;4937653;29;20386;-57
2023/02/27 04:17:38;;;;;;;0.40;0.40;;;;;;;1.26;84.81;102117.91;4949790;28;20138;-56
2023/02/27 04:20:36;;;;;;;0.57;0.57;;;;;;;1.32;84.88;102127.50;4950859;28;20037;-58
2023/02/27 04:23:07;;;;;;;0.20;0.20;;;;;;;1.26;84.16;102119.78;4965471;28;20057;-58
2023/02/27 04:25:54;;;;;;;0.40;0.40;;;;;;;1.04;84.97;102119.09;4952023;28;20390;-52
2023/02/27 04:28:29;;;;;;;0.47;0.47;;;;;;;1.01;85.87;102119.63;4951544;28;20031;-55
2023/02/27 04:31:03;;;;;;;0.20;0.20;;;;;;;1.06;85.23;102131.06;4959523;28;20030;-57
2023/02/27 04:33:35;;;;;;;0.35;0.35;;;;;;;1.07;86.30;102142.44;4963539;28;20058;-54
2023/02/27 04:36:31;;;;;;;0.50;0.50;;;;;;;1.22;85.30;102143.34;4953184;28;20047;-57
2023/02/27 04:39:03;;;;;;;0.30;0.30;;;;;;;1.26;84.91;102136.47;4954386;28;20042;-57
2023/02/27 04:41:38;;;;;;;5.35;0.50;;;;;;;1.31;84.77;102141.03;4964049;28;20114;-58
2023/02/27 04:44:06;;;;;;;0.30;0.30;;;;;;;1.26;84.28;102147.09;4961537;28;20038;-51
2023/02/27 04:46:36;;;;;;;0.47;0.30;;;;;;;1.29;84.75;102141.28;4952378;28;20027;-57
2023/02/27 04:49:08;;;;;;;1.17;0.75;;;;;;;1.32;84.64;102146.06;4950145;28;20509;-58
2023/02/27 04:52:02;;;;;;;0.40;0.40;;;;;;;1.23;84.44;102139.66;4959506;28;20093;-55
2023/02/27 04:54:33;;;;;;;0.30;0.30;;;;;;;1.31;83.95;102147.13;4954053;28;20401;-58
2023/02/27 04:57:03;;;;;;;1.35;0.32;;;;;;;1.32;84.20;102148.72;4951192;28;20035;-57
2023/02/27 04:59:51;;;;;;;0.32;0.32;;;;;;;1.29;84.44;102146.59;4934781;29;20043;-57
2023/02/27 05:02:23;;;;;;;0.30;0.30;;;;;;;1.25;84.17;102147.34;4925567;29;20031;-59
2023/02/27 05:04:55;;;;;;;1.30;0.60;;;;;;;1.22;84.76;102145.22;4952961;28;20031;-56
2023/02/27 05:07:26;;;;;;;0.30;0.30;;;;;;;1.17;85.21;102145.97;4938844;28;20501;-58
2023/02/27 05:10:00;;;;;;;0.50;0.50;;;;;;;1.20;84.89;102145.44;4970778;28;20540;-56
2023/02/27 05:12:56;;;;;;;0.40;0.40;;;;;;;1.18;84.95;102150.22;4953472;28;20529;-55
2023/02/27 05:15:38;;;;;;;0.50;0.50;;;;;;;1.07;84.78;102153.84;4952740;28;20510;-56
2023/02/27 05:18:08;;;;;;;0.80;0.40;;;;;;;1.03;85.07;102158.06;4963945;28;20050;-58
2023/02/27 05:20:58;;;;;;;0.20;0.20;;;;;;;1.13;85.52;102157.34;4940764;28;20039;-59
2023/02/27 05:23:31;;;;;;;1.02;0.47;;;;;;;1.04;85.52;102157.03;4932394;28;20426;-57
2023/02/27 05:26:06;;;;;;;0.30;0.30;;;;;;;1.08;85.95;102167.91;4965317;28;20470;-56
2023/02/27 05:28:37;;;;;;;0.57;0.57;;;;;;;1.10;85.73;102158.66;4937058;29;20530;-56
2023/02/27 05:31:20;;;;;;;0.60;0.55;;;;;;;0.99;86.37;102159.63;4966102;28;20031;-55
2023/02/27 05:34:06;;;;;;;0.50;0.50;;;;;;;1.01;86.46;102162.03;4945140;28;20039;-58
2023/02/27 05:36:40;;;;;;;0.30;0.30;;;;;;;1.06;86.55;102159.41;4935493;29;20035;-58
2023/02/27 05:39:09;;;;;;;0.43;0.43;;;;;;;1.06;86.41;102164.72;4949607;28;20054;-55
2023/02/27 05:41:40;;;;;;;0.30;0.30;;;;;;;1.01;86.44;102164.69;4944506;28;20027;-59
2023/02/27 05:44:11;;;;;;;0.68;0.68;;;;;;;1.01;86.95;102162.81;4956036;28;20130;-59
2023/02/27 05:46:43;;;;;;;1.08;0.45;;;;;;;0.96;87.11;102176.06;4944752;28;20687;-57
2023/02/27 05:49:22;;;;;;;0.38;0.38;;;;;;;0.96;86.60;102168.09;4935829;28;20206;-58
2023/02/27 05:51:50;;;;;;;0.57;0.57;;;;;;;0.95;87.70;102174.44;4934721;28;20070;-59
2023/02/27 05:54:23;;;;;;;1.58;0.57;;;;;;;0.79;87.41;102172.72;4920877;29;20165;-54
2023/02/27 05:56:53;;;;;;;0.30;0.30;;;;;;;0.54;88.54;102178.56;4941945;28;20063;-54
2023/02/27 05:59:43;;;;;;;0.20;0.20;;;;;;;0.49;89.17;102180.38;4942818;28;20486;-59
2023/02/27 06:02:11;;;;;;;0.35;0.35;;;;;;;0.57;88.79;102172.78;4947719;28;20892;-59
2023/02/27 06:04:36;;;;;;;0.40;0.40;;;;;;;0.64;88.34;102176.03;4948600;28;20035;-58
2023/02/27 06:07:03;;;;;;;0.22;0.22;;;;;;;0.67;88.44;102182.69;4929377;28;20050;-57
2023/02/27 06:09:31;;;;;;;0.20;0.20;;;;;;;0.49;88.23;102183.00;4958156;28;20038;-58
2023/02/27 06:11:58;;;;;;;0.30;0.30;;;;;;;0.35;89.31;102184.47;4942790;28;20086;-56
2023/02/27 06:14:24;;;;;;;0.30;0.30;;;;;;;0.26;89.91;102186.75;4950643;28;20046;-55
2023/02/27 06:16:49;;;;;;;0.30;0.30;;;;;;;0.30;90.14;102190.50;4935618;28;20039;-54
2023/02/27 06:19:15;;;;;;;0.28;0.28;;;;;;;0.41;89.41;102186.09;4948020;28;20039;-56
2023/02/27 06:21:40;;;;;;;0.85;0.45;;;;;;;0.45;89.15;102189.84;4932318;28;20070;-59
2023/02/27 06:24:06;;;;;;;0.30;0.30;;;;;;;0.62;89.04;102198.53;4928648;28;20039;-51
2023/02/27 06:26:31;;;;;;;0.70;0.70;;;;;;;0.79;88.67;102207.19;4923028;28;20019;-51
2023/02/27 06:28:58;;;;;;;0.30;0.30;;;;;;;0.83;88.70;102205.63;4930363;28;20501;-53
2023/02/27 06:31:23;;;;;;;0.52;0.52;;;;;;;0.92;87.90;102212.06;4950817;28;20035;-51
2023/02/27 06:33:49;;;;;;;0.63;0.63;;;;;;;0.99;87.76;102201.28;4957497;28;20048;-50
2023/02/27 06:36:14;;;;;;;0.68;0.68;;;;;;;0.97;87.46;102209.44;4942690;28;20063;-51
2023/02/27 06:38:40;;;;;;;0.35;0.35;;;;;;;0.87;88.37;102209.38;4943895;28;20043;-50
2023/02/27 06:41:06;;;;;;;0.20;0.20;;;;;;;0.92;88.44;102212.06;4959104;28;20031;-52
2023/02/27 06:43:33;;;;;;;0.45;0.45;;;;;;;1.02;88.51;102212.16;4942102;28;20056;-50
2023/02/27 06:45:59;;;;;;;1.52;0.85;;;;;;;1.03;88.41;102205.78;4942632;28;20042;-51
2023/02/27 06:48:25;;;;;;;0.43;0.43;;;;;;;1.10;88.61;102205.59;4939832;28;20046;-49
2023/02/27 06:50:55;;;;;;;0.80;0.80;;;;;;;1.14;87.96;102215.47;4946658;28;20761;-52
2023/02/27 06:53:21;;;;;;;0.38;0.38;;;;;;;1.24;87.63;102210.22;4949240;29;20031;-53
2023/02/27 06:55:47;;;;;;;0.40;0.40;;;;;;;1.29;88.00;102218.22;4948883;28;20127;-53
2023/02/27 06:58:12;;;;;;;0.30;0.30;;;;;;;1.19;88.18;102218.13;4950584;28;20891;-53
2023/02/27 07:00:38;;;;;;;0.20;0.20;;;;;;;1.10;88.97;102224.97;4951384;28;20035;-53
2023/02/27 07:03:03;;;;;;;0.50;0.50;;;;;;;1.10;88.85;102235.56;4950384;28;20031;-54
2023/02/27 07:05:30;;;;;;;0.60;0.60;;;;;;;1.25;89.08;102222.44;4966407;28;20046;-53
2023/02/27 07:07:55;;;;;;;0.38;0.38;;;;;;;1.14;89.55;102218.09;4940992;28;20042;-53
2023/02/27 07:10:21;;;;;;;0.77;0.77;;;;;;;1.24;89.18;102226.13;4957726;28;20031;-53
2023/02/27 07:12:46;;;;;;;0.75;0.75;;;;;;;1.29;89.31;102226.19;4949241;28;20043;-52
2023/02/27 07:15:12;;;;;;;1.45;1.35;;;;;;;1.38;89.24;102222.00;4960177;28;20031;-52
2023/02/27 07:17:38;;;;;;;0.68;0.68;;;;;;;1.49;89.58;102221.00;4955058;28;20019;-54
2023/02/27 07:20:09;;;;;;;0.82;0.80;;;;;;;1.49;89.14;102225.53;4955432;28;20080;-53
2023/02/27 07:22:35;;;;;;;0.75;0.75;;;;;;;1.59;89.47;102225.56;4946521;28;20031;-54
2023/02/27 07:25:00;;;;;;;0.60;0.60;;;;;;;1.69;88.57;102225.66;4953876;28;20046;-49
2023/02/27 07:27:26;;;;;;;0.20;0.20;;;;;;;1.72;88.67;102233.13;4950961;28;20027;-50
2023/02/27 07:29:51;;;;;;;0.73;0.73;;;;;;;1.74;89.04;102237.09;4954983;28;20071;-48
2023/02/27 07:32:17;;;;;;;0.30;0.30;;;;;;;1.77;89.33;102243.75;4957828;28;20031;-50
2023/02/27 07:34:42;;;;;;;0.47;0.47;;;;;;;1.84;89.56;102242.47;4947247;28;20141;-52
2023/02/27 07:37:08;;;;;;;1.05;1.02;;;;;;;1.90;89.80;102243.28;4954873;28;20042;-47
2023/02/27 07:39:33;;;;;;;0.52;0.52;;;;;;;1.93;89.81;102240.13;4951907;28;20023;-52
2023/02/27 07:41:59;;;;;;;0.40;0.40;;;;;;;2.04;89.74;102238.31;4950392;28;20059;-51
2023/02/27 07:44:25;;;;;;;0.32;0.32;;;;;;;2.14;90.32;102239.19;4958205;28;20133;-53
2023/02/27 07:46:50;;;;;;;0.68;0.68;;;;;;;2.30;90.81;102242.69;4937862;29;20031;-53
2023/02/27 07:49:16;;;;;;;0.50;0.50;;;;;;;2.54;90.94;102254.47;4948914;28;20494;-53
2023/02/27 07:51:41;;;;;;;0.32;0.32;;;;;;;2.78;91.13;102247.63;4939700;28;20043;-53
2023/02/27 07:54:06;;;;;;;0.20;0.20;;;;;;;3.03;90.92;102247.66;4954431;28;20113;-49
2023/02/27 07:56:32;;;;;;;0.30;0.30;;;;;;;3.29;90.66;102251.94;4952871;28;20067;-53
2023/02/27 07:58:58;;;;;;;0.30;0.30;;;;;;;3.55;90.72;102258.06;4951171;28;20039;-47
2023/02/27 08:01:23;;;;;;;0.30;0.30;;;;;;;3.85;90.22;102257.22;4937079;28;20053;-47
2023/02/27 08:03:48;;;;;;;0.57;0.57;;;;;;;4.15;89.29;102259.78;4953500;28;20035;-49
2023/02/27 08:06:14;;;;;;;0.25;0.25;;;;;;;4.35;89.42;102257.88;4967464;28;20506;-52
2023/02/27 08:08:39;;;;;;;0.47;0.47;;;;;;;4.51;89.04;102263.91;4952561;28;20035;-53
2023/02/27 08:11:05;;;;;;;2.00;0.60;;;;;;;4.77;89.48;102257.38;4948588;28;20512;-53
2023/02/27 08:13:30;;;;;;;0.50;0.50;;;;;;;4.98;88.12;102266.84;4961103;28;20515;-48
2023/02/27 08:15:56;;;;;;;3.03;0.47;;;;;;;5.17;87.70;102258.97;4961049;28;20082;-49
2023/02/27 08:18:22;;;;;;;0.20;0.20;;;;;;;5.34;86.98;102257.50;4948268;28;20046;-49
2023/02/27 08:20:47;;;;;;;0.40;0.40;;;;;;;5.59;86.29;102261.03;4957079;28;20433;-50
2023/02/27 08:23:13;;;;;;;0.35;0.35;;;;;;;5.72;85.38;102265.72;4958607;28;20039;-49
2023/02/27 08:25:38;;;;;;;0.52;0.52;;;;;;;5.90;84.33;102275.72;4961787;28;20089;-49
2023/02/27 08:28:04;;;;;;;0.47;0.47;;;;;;;6.09;83.83;102266.72;4956821;28;20035;-48
2023/02/27 08:30:32;;;;;;;0.35;0.35;;;;;;;6.33;83.27;102264.00;4953129;28;20031;-49
2023/02/27 08:32:57;;;;;;;0.55;0.55;;;;;;;6.41;81.70;102276.75;4965186;28;20094;-48
2023/02/27 08:35:23;;;;;;;0.25;0.25;;;;;;;6.68;81.75;102278.84;4949119;28;20042;-48
2023/02/27 08:37:48;;;;;;;0.85;0.60;;;;;;;6.70;79.82;102269.41;4939102;28;20042;-46
2023/02/27 08:40:15;;;;;;;1.30;1.30;;;;;;;6.86;79.59;102284.19;4930725;28;20059;-50
2023/02/27 08:42:41;;;;;;;0.52;0.52;;;;;;;6.96;79.63;102285.94;4954764;28;20124;-49
2023/02/27 08:45:08;;;;;;;0.28;0.28;;;;;;;7.04;77.94;102298.66;4941690;28;20123;-48
2023/02/27 08:47:33;;;;;;;0.30;0.30;;;;;;;7.11;77.73;102293.72;4950871;28;20039;-53
2023/02/27 08:49:59;;;;;;;0.57;0.57;;;;;;;7.21;76.31;102283.69;4949513;28;20410;-49
2023/02/27 08:52:24;;;;;;;1.55;0.45;;;;;;;7.24;77.21;102285.75;4948419;28;20490;-50
2023/02/27 08:54:50;;;;;;;0.88;0.88;;;;;;;7.47;76.07;102280.59;4952894;28;20027;-53
2023/02/27 08:57:15;;;;;;;0.30;0.30;;;;;;;7.59;75.07;102287.06;4950178;28;20050;-53
2023/02/27 08:59:40;;;;;;;0.20;0.20;;;;;;;7.72;74.97;102290.88;4948225;28;20046;-52
2023/02/27 09:02:06;;;;;;;0.82;0.73;;;;;;;7.93;74.05;102295.59;4949717;28;20063;-52
2023/02/27 09:04:32;;;;;;;0.20;0.20;;;;;;;8.04;72.68;102302.34;4943837;28;20058;-53
2023/02/27 09:06:57;;;;;;;10.18;3.88;;;;;;;8.23;72.40;102299.56;4951108;28;20474;-51
2023/02/27 09:09:23;;;;;;;8.63;2.25;;;;;;;8.36;71.06;102303.41;4937509;28;20034;-49
2023/02/27 09:11:49;;;;;;;0.28;0.22;;;;;;;8.46;70.05;102306.66;4942953;28;20038;-46
2023/02/27 09:14:15;;;;;;;0.25;0.25;;;;;;;8.48;68.31;102298.34;4936128;28;20153;-47
2023/02/27 09:16:41;;;;;;;0.50;0.50;;;;;;;8.54;67.41;102303.28;4933672;29;20111;-49
2023/02/27 09:19:06;;;;;;;0.82;0.60;;;;;;;8.63;68.23;102304.16;4946447;28;20039;-52
2023/02/27 09:21:31;;;;;;;0.32;0.32;;;;;;;8.77;67.99;102310.31;4940347;28;20028;-50
2023/02/27 09:23:57;;;;;;;0.68;0.32;;;;;;;8.99;67.01;102310.38;4938787;28;20123;-48
2023/02/27 09:26:23;;;;;;;0.30;0.30;;;;;;;9.11;66.06;102301.78;4935374;28;20454;-48
2023/02/27 09:28:49;;;;;;;0.30;0.30;;;;;;;9.24;65.21;102295.56;4930176;29;20042;-52
2023/02/27 09:31:15;;;;;;;0.28;0.20;;;;;;;9.51;63.40;102303.50;4951880;28;20549;-50
2023/02/27 09:33:43;;;;;;;1.30;0.40;;;;;;;9.63;61.84;102309.13;4953399;28;20537;-46
2023/02/27 09:36:09;;;;;;;0.40;0.40;;;;;;;9.71;60.15;102312.97;4951689;28;20125;-47
2023/02/27 09:38:37;;;;;;;0.30;0.30;;;;;;;9.62;59.19;102309.44;4951888;28;20027;-50
2023/02/27 09:41:04;;;;;;;0.35;0.35;;;;;;;9.68;60.18;102305.50;4947385;28;20031;-48
2023/02/27 09:43:39;;;;;;;0.10;0.10;;;;;;;9.67;59.40;102303.91;4935594;28;20035;-48
2023/02/27 09:46:06;;;;;;;0.40;0.40;;;;;;;9.50;58.97;102301.13;4945783;28;20086;-50
2023/02/27 09:48:53;;;;;;;0.50;0.40;;;;;;;9.58;59.13;102305.75;4941994;28;20122;-52
2023/02/27 09:51:20;;;;;;;0.13;0.13;;;;;;;9.68;56.89;102302.78;4963194;28;20031;-49
2023/02/27 09:53:50;;;;;;;0.10;0.10;;;;;;;9.91;56.70;102309.75;4951995;28;20054;-47
2023/02/27 09:56:27;;;;;;;0.20;0.20;;;;;;;9.77;56.61;102309.03;4951634;28;20045;-47
2023/02/27 09:59:18;;;;;;;0.10;0.10;;;;;;;9.74;55.72;102301.56;4950757;28;20047;-46
2023/02/27 10:01:59;;;;;;;0.20;0.20;;;;;;;9.68;56.33;102300.91;4943186;28;20058;-51
2023/02/27 10:05:02;;;;;;;0.10;0.10;;;;;;;9.61;56.08;102305.13;4947376;28;20038;-47
2023/02/27 10:07:36;;;;;;;0.10;0.10;;;;;;;9.83;55.87;102299.75;4959002;28;20474;-46
2023/02/27 10:10:03;;;;;;;0.10;0.10;;;;;;;9.57;55.18;102312.22;4933671;28;20502;-47
2023/02/27 10:12:40;;;;;;;0.10;0.10;;;;;;;9.68;55.06;102298.22;4942726;28;20110;-51
2023/02/27 10:15:18;;;;;;;0.10;0.10;;;;;;;9.81;54.67;102307.31;4936411;28;20032;-48
2023/02/27 10:17:49;;;;;;;0.15;0.15;;;;;;;9.94;54.03;102306.44;4944350;28;20035;-57
2023/02/27 10:20:53;;;;;;;0.10;0.10;;;;;;;9.84;53.82;102310.19;4937120;28;20043;-51
2023/02/27 10:23:28;;;;;;;0.20;0.20;;;;;;;9.97;54.87;102312.00;4945709;28;20031;-47
2023/02/27 10:25:54;;;;;;;0.20;0.20;;;;;;;10.21;53.83;102310.84;4933257;28;20034;-57
2023/02/27 10:28:21;;;;;;;0.10;0.10;;;;;;;10.35;54.23;102309.66;4933174;28;20045;-45
2023/02/27 10:30:49;;;;;;;0.10;0.10;;;;;;;10.25;53.23;102301.84;4945959;28;20405;-53
2023/02/27 10:33:25;;;;;;;0.17;0.17;;;;;;;10.06;53.65;102306.66;4951482;29;20050;-47
2023/02/27 10:35:53;;;;;;;0.00;0.00;;;;;;;10.00;53.87;102318.66;4940593;28;20039;-50
2023/02/27 10:38:41;;;;;;;0.20;0.20;;;;;;;10.35;53.97;102323.13;4921293;29;20526;-48
2023/02/27 10:41:11;;;;;;;0.10;0.10;;;;;;;10.53;52.91;102324.75;4942939;28;20043;-43
2023/02/27 10:43:36;;;;;;;0.20;0.20;;;;;;;10.51;52.98;102324.25;4937997;29;20071;-46
2023/02/27 10:46:11;;;;;;;0.10;0.10;;;;;;;10.31;52.11;102329.44;4941956;28;20066;-44
2023/02/27 10:48:36;;;;;;;0.10;0.10;;;;;;;10.17;52.53;102326.03;4942398;28;20114;-48
2023/02/27 10:51:22;;;;;;;0.28;0.28;;;;;;;9.92;52.83;102336.34;4935485;29;20642;-47
2023/02/27 10:53:48;;;;;;;0.70;0.38;;;;;;;10.24;52.88;102329.09;4949344;28;20478;-47
2023/02/27 10:56:22;;;;;;;0.30;0.30;;;;;;;10.52;52.21;102333.13;4956035;28;20038;-52
2023/02/27 10:59:02;;;;;;;0.43;0.25;;;;;;;10.68;52.10;102337.78;4950021;28;20074;-53
2023/02/27 11:01:44;;;;;;;0.15;0.15;;;;;;;10.39;52.35;102337.56;4944683;28;20043;-44
2023/02/27 11:04:11;;;;;;;0.17;0.15;;;;;;;10.27;52.06;102340.03;4939917;28;20098;-54
2023/02/27 11:06:37;;;;;;;0.15;0.15;;;;;;;10.12;52.56;102337.75;4960269;28;20023;-44
2023/02/27 11:09:32;;;;;;;0.68;0.38;;;;;;;9.97;52.78;102336.22;4941719;28;20074;-46
2023/02/27 11:12:27;;;;;;;0.20;0.20;;;;;;;9.93;51.88;102339.81;4946025;28;20654;-46
2023/02/27 11:14:54;;;;;;;0.10;0.10;;;;;;;9.85;52.51;102348.66;4941654;28;20031;-50
2023/02/27 11:17:31;;;;;;;0.10;0.10;;;;;;;9.67;53.22;102346.94;4963266;28;20047;-45
2023/02/27 11:19:59;;;;;;;0.10;0.10;;;;;;;9.73;53.37;102343.03;4935525;28;20051;-45
2023/02/27 11:22:30;;;;;;;0.17;0.17;;;;;;;9.74;53.42;102344.63;4936357;29;20019;-52
2023/02/27 11:25:14;;;;;;;;;;;;;;;9.87;54.11;102344.53;4944241;28;20039;-50
2023/02/27 11:27:40;;;;;;;0.22;0.20;;;;;;;9.90;54.54;102343.13;4941800;28;20010;-43
2023/02/27 11:30:30;;;;;;;0.20;0.20;;;;;;;10.03;54.56;102344.94;4944852;28;20132;-43
2023/02/27 11:32:58;;;;;;;0.17;0.17;;;;;;;9.98;54.70;102350.47;4946090;28;20039;-45
2023/02/27 11:35:30;;;;;;;0.65;0.30;;;;;;;9.97;53.90;102354.25;4941341;28;20039;-44
2023/02/27 11:38:15;;;;;;;0.35;0.20;;;;;;;9.96;53.19;102352.66;4943715;28;20034;-45
2023/02/27 11:40:49;;;;;;;0.10;0.10;;;;;;;9.91;52.52;102350.13;4947400;28;20046;-44
2023/02/27 11:43:22;;;;;;;0.10;0.10;;;;;;;9.99;53.20;102342.09;4945789;29;20115;-54
2023/02/27 11:45:58;;;;;;;0.22;0.22;;;;;;;10.07;53.73;102348.59;4939888;29;20399;-44
2023/02/27 11:48:38;;;;;;;0.30;0.30;;;;;;;10.16;52.63;102349.50;4939654;29;20034;-50
2023/02/27 11:51:10;;;;;;;0.20;0.20;;;;;;;10.17;52.87;102348.38;4941992;28;20184;-46
2023/02/27 11:53:57;;;;;;;1.45;0.20;;;;;;;10.19;53.38;102339.97;4931737;28;20299;-48
2023/02/27 11:56:31;;;;;;;0.30;0.30;;;;;;;10.27;52.64;102342.72;4933650;28;20089;-50